ADDS METAR Data INFO
IDs: Format: Raw Decoded Include TAF

Data at: 0851 UTC 22 Feb 2018

KFMY 220753Z AUTO 07007KT 10SM FEW031 21/19 A3031 RMK AO2 SLP265 T02060194
KFMY 220653Z AUTO 06006KT 10SM CLR 21/19 A3032 RMK AO2 SLP270 T02060194
KFMY 220553Z AUTO 08005KT 10SM CLR 21/19 A3033 RMK AO2 SLP273 T02110194 10261 20211 58004
KFMY 220453Z AUTO 07005KT 10SM CLR 22/19 A3034 RMK AO2 SLP274 T02170189 403110211
KFMY 220353Z AUTO 08005KT 10SM CLR 22/19 A3035 RMK AO2 SLP278 T02220189
KFMY 212353Z 11009KT 10SM CLR 26/18 A3029 RMK AO2 SLP259 T02610183 10311 20261 53009
KFMY 212253Z 10013G19KT 10SM CLR 28/18 A3028 RMK AO2 SLP254 T02780178
KFMY 212153Z 11012KT 10SM SCT065 30/17 A3026 RMK AO2 SLP250 T03000172
KFMY 212053Z AUTO 12014KT 10SM BKN060 30/17 A3027 RMK AO2 SLP250 T03000172 56015
KFMY 211953Z 10007G17KT 10SM BKN060 31/17 A3027 RMK AO2 SLP253 T03060172
KFMY 211853Z 11009G17KT 10SM SCT050 31/17 A3029 RMK AO2 SLP259 T03060172
KFMY 211753Z 13014KT 10SM BKN047 31/18 A3031 RMK AO2 SLP266 T03060183 10306 20211 58015
KFMY 211653Z 10012KT 10SM BKN043 28/19 A3034 RMK AO2 SLP276 T02830189
KFMY 211553Z 13012G20KT 10SM SCT039 28/19 A3036 RMK AO2 SLP282 T02780194
KFMY 211516Z 12015G20KT 10SM SCT025 27/20 A3035 RMK AO2 T02720200
KFMY 211453Z 11012G18KT 10SM SCT022 BKN028 26/21 A3036 RMK AO2 SLP281 T02610206 51009
KFMY 211353Z 11011KT 10SM CLR 24/21 A3035 RMK AO2 SLP280 T02440211
KFMY 211253Z 09007KT 10SM CLR 22/21 A3034 RMK AO2 SLP276 T02220211
KFMY 210753Z AUTO 10008KT 10SM CLR 22/21 A3030 RMK AO2 SLP261 T02220211
KFMY 210653Z AUTO 11007KT 10SM CLR 22/21 A3031 RMK AO2 SLP264 T02220211
KFMY 210553Z AUTO 10007KT 10SM CLR 23/21 A3031 RMK AO2 SLP267 T02280211 10267 20228 51001